sensor_id;sensor_type;location;lat;lon;timestamp;P1;durP1;ratioP1;P2;durP2;ratioP2
13267;SDS011;6702;47.068;15.458;2022-08-25T00:02:16;7.17;;;6.50;;
13267;SDS011;6702;47.068;15.458;2022-08-25T00:05:19;7.13;;;6.33;;
13267;SDS011;6702;47.068;15.458;2022-08-25T00:08:22;7.70;;;7.00;;
13267;SDS011;6702;47.068;15.458;2022-08-25T00:11:26;7.73;;;7.03;;
13267;SDS011;6702;47.068;15.458;2022-08-25T00:14:32;7.27;;;6.57;;
13267;SDS011;6702;47.068;15.458;2022-08-25T00:17:39;7.80;;;7.23;;
13267;SDS011;6702;47.068;15.458;2022-08-25T00:20:42;7.37;;;6.63;;
13267;SDS011;6702;47.068;15.458;2022-08-25T00:23:49;7.40;;;6.80;;
13267;SDS011;6702;47.068;15.458;2022-08-25T00:26:53;7.50;;;6.80;;
13267;SDS011;6702;47.068;15.458;2022-08-25T00:29:58;7.90;;;7.30;;
13267;SDS011;6702;47.068;15.458;2022-08-25T00:33:03;7.20;;;6.50;;
13267;SDS011;6702;47.068;15.458;2022-08-25T00:36:07;6.90;;;6.30;;
13267;SDS011;6702;47.068;15.458;2022-08-25T00:39:12;8.47;;;7.67;;
13267;SDS011;6702;47.068;15.458;2022-08-25T00:42:15;7.50;;;6.83;;
13267;SDS011;6702;47.068;15.458;2022-08-25T00:45:21;8.27;;;6.80;;
13267;SDS011;6702;47.068;15.458;2022-08-25T00:48:26;7.10;;;6.40;;
13267;SDS011;6702;47.068;15.458;2022-08-25T00:51:31;8.27;;;7.57;;
13267;SDS011;6702;47.068;15.458;2022-08-25T00:54:39;6.80;;;6.20;;
13267;SDS011;6702;47.068;15.458;2022-08-25T00:57:49;6.90;;;6.30;;
13267;SDS011;6702;47.068;15.458;2022-08-25T01:00:57;7.63;;;6.83;;
13267;SDS011;6702;47.068;15.458;2022-08-25T01:04:02;6.13;;;5.63;;
13267;SDS011;6702;47.068;15.458;2022-08-25T01:07:05;7.50;;;6.83;;
13267;SDS011;6702;47.068;15.458;2022-08-25T01:10:17;7.73;;;6.87;;
13267;SDS011;6702;47.068;15.458;2022-08-25T01:13:23;6.90;;;6.30;;
13267;SDS011;6702;47.068;15.458;2022-08-25T01:16:32;7.90;;;7.17;;
13267;SDS011;6702;47.068;15.458;2022-08-25T01:19:37;7.70;;;7.00;;
13267;SDS011;6702;47.068;15.458;2022-08-25T01:22:41;7.20;;;6.60;;
13267;SDS011;6702;47.068;15.458;2022-08-25T01:25:50;7.00;;;6.40;;
13267;SDS011;6702;47.068;15.458;2022-08-25T01:29:02;8.77;;;6.07;;
13267;SDS011;6702;47.068;15.458;2022-08-25T01:32:25;6.93;;;6.40;;
13267;SDS011;6702;47.068;15.458;2022-08-25T01:35:29;6.80;;;6.30;;
13267;SDS011;6702;47.068;15.458;2022-08-25T01:38:34;8.03;;;7.23;;
13267;SDS011;6702;47.068;15.458;2022-08-25T01:41:40;9.23;;;7.27;;
13267;SDS011;6702;47.068;15.458;2022-08-25T01:44:51;7.43;;;6.73;;
13267;SDS011;6702;47.068;15.458;2022-08-25T01:47:54;7.20;;;6.60;;
13267;SDS011;6702;47.068;15.458;2022-08-25T01:50:58;8.73;;;8.03;;
13267;SDS011;6702;47.068;15.458;2022-08-25T01:54:02;8.50;;;7.70;;
13267;SDS011;6702;47.068;15.458;2022-08-25T01:57:06;8.43;;;6.30;;
13267;SDS011;6702;47.068;15.458;2022-08-25T02:00:10;7.53;;;6.97;;
13267;SDS011;6702;47.068;15.458;2022-08-25T02:03:14;8.10;;;7.00;;
13267;SDS011;6702;47.068;15.458;2022-08-25T02:06:21;7.30;;;6.70;;
13267;SDS011;6702;47.068;15.458;2022-08-25T02:09:31;7.87;;;7.07;;
13267;SDS011;6702;47.068;15.458;2022-08-25T02:12:35;7.10;;;6.40;;
13267;SDS011;6702;47.068;15.458;2022-08-25T02:15:39;8.00;;;7.00;;
13267;SDS011;6702;47.068;15.458;2022-08-25T02:18:43;6.50;;;6.00;;
13267;SDS011;6702;47.068;15.458;2022-08-25T02:21:46;7.00;;;6.30;;
13267;SDS011;6702;47.068;15.458;2022-08-25T02:24:51;6.77;;;6.27;;
13267;SDS011;6702;47.068;15.458;2022-08-25T02:27:54;6.60;;;6.00;;
13267;SDS011;6702;47.068;15.458;2022-08-25T02:30:57;7.27;;;6.57;;
13267;SDS011;6702;47.068;15.458;2022-08-25T02:34:02;8.20;;;6.43;;
13267;SDS011;6702;47.068;15.458;2022-08-25T02:37:06;7.47;;;6.83;;
13267;SDS011;6702;47.068;15.458;2022-08-25T02:40:11;6.83;;;6.23;;
13267;SDS011;6702;47.068;15.458;2022-08-25T02:43:15;7.27;;;6.67;;
13267;SDS011;6702;47.068;15.458;2022-08-25T02:46:18;7.70;;;7.10;;
13267;SDS011;6702;47.068;15.458;2022-08-25T02:49:22;8.60;;;7.60;;
13267;SDS011;6702;47.068;15.458;2022-08-25T02:52:25;7.67;;;6.97;;
13267;SDS011;6702;47.068;15.458;2022-08-25T02:55:30;6.60;;;6.10;;
13267;SDS011;6702;47.068;15.458;2022-08-25T02:58:34;7.77;;;7.10;;
13267;SDS011;6702;47.068;15.458;2022-08-25T03:01:38;7.00;;;6.50;;
13267;SDS011;6702;47.068;15.458;2022-08-25T03:04:41;8.20;;;7.50;;
13267;SDS011;6702;47.068;15.458;2022-08-25T03:07:45;9.00;;;8.10;;
13267;SDS011;6702;47.068;15.458;2022-08-25T03:10:50;8.13;;;7.33;;
13267;SDS011;6702;47.068;15.458;2022-08-25T03:13:53;8.23;;;7.43;;
13267;SDS011;6702;47.068;15.458;2022-08-25T03:16:56;9.00;;;6.70;;
13267;SDS011;6702;47.068;15.458;2022-08-25T03:20:00;7.53;;;6.63;;
13267;SDS011;6702;47.068;15.458;2022-08-25T03:23:03;7.30;;;6.60;;
13267;SDS011;6702;47.068;15.458;2022-08-25T03:26:09;7.47;;;6.77;;
13267;SDS011;6702;47.068;15.458;2022-08-25T03:29:30;7.13;;;6.60;;
13267;SDS011;6702;47.068;15.458;2022-08-25T03:32:34;7.23;;;6.63;;
13267;SDS011;6702;47.068;15.458;2022-08-25T03:35:37;7.60;;;6.90;;
13267;SDS011;6702;47.068;15.458;2022-08-25T03:38:40;8.20;;;7.50;;
13267;SDS011;6702;47.068;15.458;2022-08-25T03:41:44;7.37;;;6.77;;
13267;SDS011;6702;47.068;15.458;2022-08-25T03:44:48;7.60;;;7.00;;
13267;SDS011;6702;47.068;15.458;2022-08-25T03:47:51;7.83;;;6.83;;
13267;SDS011;6702;47.068;15.458;2022-08-25T03:50:55;7.63;;;6.93;;
13267;SDS011;6702;47.068;15.458;2022-08-25T03:53:58;9.17;;;7.07;;
13267;SDS011;6702;47.068;15.458;2022-08-25T03:57:03;7.10;;;6.40;;
13267;SDS011;6702;47.068;15.458;2022-08-25T04:00:07;7.33;;;6.60;;
13267;SDS011;6702;47.068;15.458;2022-08-25T04:03:12;13.53;;;6.83;;
13267;SDS011;6702;47.068;15.458;2022-08-25T04:06:16;7.87;;;7.07;;
13267;SDS011;6702;47.068;15.458;2022-08-25T04:09:20;8.03;;;7.30;;
13267;SDS011;6702;47.068;15.458;2022-08-25T04:12:24;8.10;;;7.30;;
13267;SDS011;6702;47.068;15.458;2022-08-25T04:15:28;14.13;;;8.10;;
13267;SDS011;6702;47.068;15.458;2022-08-25T04:18:31;7.37;;;6.60;;
13267;SDS011;6702;47.068;15.458;2022-08-25T04:21:34;8.53;;;7.80;;
13267;SDS011;6702;47.068;15.458;2022-08-25T04:24:39;7.27;;;6.57;;
13267;SDS011;6702;47.068;15.458;2022-08-25T04:27:43;8.20;;;7.40;;
13267;SDS011;6702;47.068;15.458;2022-08-25T04:30:46;8.60;;;6.87;;
13267;SDS011;6702;47.068;15.458;2022-08-25T04:33:52;7.30;;;6.70;;
13267;SDS011;6702;47.068;15.458;2022-08-25T04:36:56;9.47;;;7.27;;
13267;SDS011;6702;47.068;15.458;2022-08-25T04:40:00;8.67;;;6.80;;
13267;SDS011;6702;47.068;15.458;2022-08-25T04:43:05;8.47;;;6.63;;
13267;SDS011;6702;47.068;15.458;2022-08-25T04:46:09;7.70;;;7.00;;
13267;SDS011;6702;47.068;15.458;2022-08-25T04:49:20;8.03;;;7.23;;
13267;SDS011;6702;47.068;15.458;2022-08-25T04:52:23;7.87;;;7.07;;
13267;SDS011;6702;47.068;15.458;2022-08-25T04:55:26;8.03;;;6.77;;
13267;SDS011;6702;47.068;15.458;2022-08-25T04:58:31;8.03;;;7.23;;
13267;SDS011;6702;47.068;15.458;2022-08-25T05:01:34;8.83;;;7.97;;
13267;SDS011;6702;47.068;15.458;2022-08-25T05:04:38;7.10;;;6.47;;
13267;SDS011;6702;47.068;15.458;2022-08-25T05:07:41;7.53;;;6.57;;
13267;SDS011;6702;47.068;15.458;2022-08-25T05:10:44;7.97;;;6.77;;
13267;SDS011;6702;47.068;15.458;2022-08-25T05:13:50;8.67;;;7.10;;
13267;SDS011;6702;47.068;15.458;2022-08-25T05:16:54;7.17;;;6.47;;
13267;SDS011;6702;47.068;15.458;2022-08-25T05:19:57;8.70;;;6.73;;
13267;SDS011;6702;47.068;15.458;2022-08-25T05:23:00;8.53;;;7.73;;
13267;SDS011;6702;47.068;15.458;2022-08-25T05:26:04;8.17;;;7.47;;
13267;SDS011;6702;47.068;15.458;2022-08-25T05:29:11;9.13;;;7.50;;
13267;SDS011;6702;47.068;15.458;2022-08-25T05:32:14;6.60;;;5.87;;
13267;SDS011;6702;47.068;15.458;2022-08-25T05:35:18;8.70;;;7.43;;
13267;SDS011;6702;47.068;15.458;2022-08-25T05:38:21;10.13;;;7.50;;
13267;SDS011;6702;47.068;15.458;2022-08-25T05:41:26;7.80;;;7.10;;
13267;SDS011;6702;47.068;15.458;2022-08-25T05:44:32;8.27;;;7.50;;
13267;SDS011;6702;47.068;15.458;2022-08-25T05:47:35;10.90;;;7.73;;
13267;SDS011;6702;47.068;15.458;2022-08-25T05:50:38;7.70;;;6.77;;
13267;SDS011;6702;47.068;15.458;2022-08-25T05:53:42;7.73;;;7.03;;
13267;SDS011;6702;47.068;15.458;2022-08-25T05:56:47;8.30;;;7.50;;
13267;SDS011;6702;47.068;15.458;2022-08-25T05:59:51;7.83;;;7.10;;
13267;SDS011;6702;47.068;15.458;2022-08-25T06:02:54;8.30;;;7.60;;
13267;SDS011;6702;47.068;15.458;2022-08-25T06:06:03;8.80;;;7.00;;
13267;SDS011;6702;47.068;15.458;2022-08-25T06:09:07;8.57;;;7.23;;
13267;SDS011;6702;47.068;15.458;2022-08-25T06:12:11;8.03;;;7.23;;
13267;SDS011;6702;47.068;15.458;2022-08-25T06:15:16;8.50;;;7.20;;
13267;SDS011;6702;47.068;15.458;2022-08-25T06:18:21;7.97;;;7.13;;
13267;SDS011;6702;47.068;15.458;2022-08-25T06:21:24;9.83;;;6.80;;
13267;SDS011;6702;47.068;15.458;2022-08-25T06:24:28;9.70;;;7.33;;
13267;SDS011;6702;47.068;15.458;2022-08-25T06:27:31;8.03;;;7.23;;
13267;SDS011;6702;47.068;15.458;2022-08-25T06:30:37;12.73;;;7.67;;
13267;SDS011;6702;47.068;15.458;2022-08-25T06:33:40;8.10;;;7.30;;
13267;SDS011;6702;47.068;15.458;2022-08-25T06:36:44;13.77;;;7.20;;
13267;SDS011;6702;47.068;15.458;2022-08-25T06:39:49;8.80;;;8.00;;
13267;SDS011;6702;47.068;15.458;2022-08-25T06:42:52;11.30;;;8.90;;
13267;SDS011;6702;47.068;15.458;2022-08-25T06:45:57;16.93;;;8.60;;
13267;SDS011;6702;47.068;15.458;2022-08-25T06:49:00;17.50;;;8.00;;
13267;SDS011;6702;47.068;15.458;2022-08-25T06:52:04;20.93;;;11.17;;
13267;SDS011;6702;47.068;15.458;2022-08-25T06:55:07;8.67;;;8.00;;
13267;SDS011;6702;47.068;15.458;2022-08-25T06:58:11;8.67;;;7.87;;
13267;SDS011;6702;47.068;15.458;2022-08-25T07:01:16;8.20;;;7.37;;
13267;SDS011;6702;47.068;15.458;2022-08-25T07:04:22;8.53;;;7.33;;
13267;SDS011;6702;47.068;15.458;2022-08-25T07:07:26;8.90;;;8.20;;
13267;SDS011;6702;47.068;15.458;2022-08-25T07:10:44;8.00;;;7.40;;
13267;SDS011;6702;47.068;15.458;2022-08-25T07:13:48;9.47;;;8.47;;
13267;SDS011;6702;47.068;15.458;2022-08-25T07:16:53;9.77;;;8.87;;
13267;SDS011;6702;47.068;15.458;2022-08-25T07:19:56;10.53;;;8.50;;
13267;SDS011;6702;47.068;15.458;2022-08-25T07:23:00;9.90;;;8.90;;
13267;SDS011;6702;47.068;15.458;2022-08-25T07:26:06;10.10;;;9.10;;
13267;SDS011;6702;47.068;15.458;2022-08-25T07:29:31;9.60;;;8.80;;
13267;SDS011;6702;47.068;15.458;2022-08-25T07:32:44;12.60;;;10.60;;
13267;SDS011;6702;47.068;15.458;2022-08-25T07:35:55;11.27;;;10.13;;
13267;SDS011;6702;47.068;15.458;2022-08-25T07:38:58;12.37;;;9.50;;
13267;SDS011;6702;47.068;15.458;2022-08-25T07:42:05;11.90;;;10.70;;
13267;SDS011;6702;47.068;15.458;2022-08-25T07:45:12;11.50;;;10.30;;
13267;SDS011;6702;47.068;15.458;2022-08-25T07:48:22;11.57;;;10.37;;
13267;SDS011;6702;47.068;15.458;2022-08-25T07:51:26;13.43;;;10.07;;
13267;SDS011;6702;47.068;15.458;2022-08-25T07:54:29;12.47;;;10.60;;
13267;SDS011;6702;47.068;15.458;2022-08-25T07:57:35;12.90;;;8.87;;
13267;SDS011;6702;47.068;15.458;2022-08-25T08:00:40;14.40;;;9.00;;
13267;SDS011;6702;47.068;15.458;2022-08-25T08:03:45;11.67;;;9.70;;
13267;SDS011;6702;47.068;15.458;2022-08-25T08:06:51;13.20;;;10.53;;
13267;SDS011;6702;47.068;15.458;2022-08-25T08:09:54;11.53;;;10.50;;
13267;SDS011;6702;47.068;15.458;2022-08-25T08:13:17;12.30;;;11.10;;
13267;SDS011;6702;47.068;15.458;2022-08-25T08:16:22;12.30;;;11.20;;
13267;SDS011;6702;47.068;15.458;2022-08-25T08:19:27;12.00;;;10.47;;
13267;SDS011;6702;47.068;15.458;2022-08-25T08:22:31;14.73;;;10.47;;
13267;SDS011;6702;47.068;15.458;2022-08-25T08:25:34;11.77;;;10.57;;
13267;SDS011;6702;47.068;15.458;2022-08-25T08:28:37;16.93;;;10.90;;
13267;SDS011;6702;47.068;15.458;2022-08-25T08:31:40;11.10;;;10.00;;
13267;SDS011;6702;47.068;15.458;2022-08-25T08:34:50;12.47;;;11.20;;
13267;SDS011;6702;47.068;15.458;2022-08-25T08:37:53;11.53;;;10.30;;
13267;SDS011;6702;47.068;15.458;2022-08-25T08:40:59;12.77;;;10.33;;
13267;SDS011;6702;47.068;15.458;2022-08-25T08:44:27;12.53;;;11.13;;
13267;SDS011;6702;47.068;15.458;2022-08-25T08:47:42;12.53;;;11.23;;
13267;SDS011;6702;47.068;15.458;2022-08-25T08:50:58;12.33;;;10.70;;
13267;SDS011;6702;47.068;15.458;2022-08-25T08:54:12;12.20;;;11.00;;
13267;SDS011;6702;47.068;15.458;2022-08-25T08:57:19;11.33;;;10.23;;
13267;SDS011;6702;47.068;15.458;2022-08-25T09:00:26;16.33;;;10.73;;
13267;SDS011;6702;47.068;15.458;2022-08-25T09:03:33;12.30;;;11.10;;
13267;SDS011;6702;47.068;15.458;2022-08-25T09:06:43;13.53;;;11.90;;
13267;SDS011;6702;47.068;15.458;2022-08-25T09:09:48;13.77;;;12.27;;
13267;SDS011;6702;47.068;15.458;2022-08-25T09:12:54;15.33;;;11.70;;
13267;SDS011;6702;47.068;15.458;2022-08-25T09:16:07;17.40;;;9.90;;
13267;SDS011;6702;47.068;15.458;2022-08-25T09:19:39;12.13;;;10.60;;
13267;SDS011;6702;47.068;15.458;2022-08-25T09:23:24;13.20;;;11.80;;
13267;SDS011;6702;47.068;15.458;2022-08-25T09:26:36;12.33;;;10.93;;
13267;SDS011;6702;47.068;15.458;2022-08-25T09:29:49;14.17;;;11.97;;
13267;SDS011;6702;47.068;15.458;2022-08-25T09:33:00;15.27;;;11.30;;
13267;SDS011;6702;47.068;15.458;2022-08-25T09:36:06;16.63;;;11.37;;
13267;SDS011;6702;47.068;15.458;2022-08-25T09:39:10;13.37;;;10.90;;
13267;SDS011;6702;47.068;15.458;2022-08-25T09:42:14;13.10;;;11.73;;
13267;SDS011;6702;47.068;15.458;2022-08-25T09:45:31;14.87;;;12.17;;
13267;SDS011;6702;47.068;15.458;2022-08-25T09:48:43;13.90;;;12.57;;
13267;SDS011;6702;47.068;15.458;2022-08-25T09:51:57;13.67;;;12.27;;
13267;SDS011;6702;47.068;15.458;2022-08-25T09:55:30;12.47;;;11.17;;
13267;SDS011;6702;47.068;15.458;2022-08-25T09:58:42;12.33;;;11.03;;
13267;SDS011;6702;47.068;15.458;2022-08-25T10:01:46;13.40;;;10.80;;
13267;SDS011;6702;47.068;15.458;2022-08-25T10:04:51;12.57;;;11.27;;
13267;SDS011;6702;47.068;15.458;2022-08-25T10:07:55;14.57;;;12.87;;
13267;SDS011;6702;47.068;15.458;2022-08-25T10:11:02;14.53;;;12.10;;
13267;SDS011;6702;47.068;15.458;2022-08-25T10:14:15;14.43;;;12.77;;
13267;SDS011;6702;47.068;15.458;2022-08-25T10:17:23;12.87;;;11.63;;
13267;SDS011;6702;47.068;15.458;2022-08-25T10:20:30;14.27;;;12.37;;
13267;SDS011;6702;47.068;15.458;2022-08-25T10:23:36;12.93;;;11.40;;
13267;SDS011;6702;47.068;15.458;2022-08-25T10:26:51;14.97;;;13.07;;
13267;SDS011;6702;47.068;15.458;2022-08-25T10:30:05;12.40;;;11.10;;
13267;SDS011;6702;47.068;15.458;2022-08-25T10:33:14;13.00;;;10.83;;
13267;SDS011;6702;47.068;15.458;2022-08-25T10:36:31;13.00;;;11.70;;
13267;SDS011;6702;47.068;15.458;2022-08-25T10:39:51;12.27;;;10.90;;
13267;SDS011;6702;47.068;15.458;2022-08-25T10:43:09;14.00;;;12.20;;
13267;SDS011;6702;47.068;15.458;2022-08-25T10:46:26;13.33;;;12.03;;
13267;SDS011;6702;47.068;15.458;2022-08-25T10:49:39;12.87;;;11.57;;
13267;SDS011;6702;47.068;15.458;2022-08-25T10:52:55;12.90;;;9.80;;
13267;SDS011;6702;47.068;15.458;2022-08-25T10:56:10;12.07;;;10.93;;
13267;SDS011;6702;47.068;15.458;2022-08-25T10:59:29;11.38;;;10.18;;
13267;SDS011;6702;47.068;15.458;2022-08-25T11:06:20;11.13;;;10.05;;
13267;SDS011;6702;47.068;15.458;2022-08-25T11:09:28;11.73;;;10.57;;
13267;SDS011;6702;47.068;15.458;2022-08-25T11:12:37;11.50;;;10.35;;
13267;SDS011;6702;47.068;15.458;2022-08-25T11:15:49;11.93;;;10.02;;
13267;SDS011;6702;47.068;15.458;2022-08-25T11:19:16;14.77;;;9.32;;
13267;SDS011;6702;47.068;15.458;2022-08-25T11:22:25;10.27;;;9.27;;
13267;SDS011;6702;47.068;15.458;2022-08-25T11:25:36;11.30;;;10.00;;
13267;SDS011;6702;47.068;15.458;2022-08-25T11:28:48;13.13;;;10.05;;
13267;SDS011;6702;47.068;15.458;2022-08-25T11:31:58;12.50;;;10.90;;
13267;SDS011;6702;47.068;15.458;2022-08-25T11:35:03;11.60;;;10.02;;
13267;SDS011;6702;47.068;15.458;2022-08-25T11:38:16;10.80;;;9.80;;
13267;SDS011;6702;47.068;15.458;2022-08-25T11:41:30;12.85;;;9.85;;
13267;SDS011;6702;47.068;15.458;2022-08-25T11:44:46;11.82;;;8.88;;
13267;SDS011;6702;47.068;15.458;2022-08-25T11:48:00;15.63;;;9.80;;
13267;SDS011;6702;47.068;15.458;2022-08-25T11:51:26;13.57;;;8.88;;
13267;SDS011;6702;47.068;15.458;2022-08-25T11:54:37;13.80;;;9.45;;
13267;SDS011;6702;47.068;15.458;2022-08-25T11:57:46;11.48;;;8.55;;
13267;SDS011;6702;47.068;15.458;2022-08-25T12:00:54;11.98;;;9.27;;
13267;SDS011;6702;47.068;15.458;2022-08-25T12:04:14;10.40;;;9.35;;
13267;SDS011;6702;47.068;15.458;2022-08-25T12:11:42;10.82;;;9.70;;
13267;SDS011;6702;47.068;15.458;2022-08-25T12:14:50;12.63;;;10.00;;
13267;SDS011;6702;47.068;15.458;2022-08-25T12:18:07;10.52;;;9.35;;
13267;SDS011;6702;47.068;15.458;2022-08-25T12:21:15;15.27;;;10.93;;
13267;SDS011;6702;47.068;15.458;2022-08-25T12:24:44;11.40;;;10.27;;
13267;SDS011;6702;47.068;15.458;2022-08-25T12:27:54;11.20;;;10.07;;
13267;SDS011;6702;47.068;15.458;2022-08-25T12:31:23;9.93;;;8.98;;
13267;SDS011;6702;47.068;15.458;2022-08-25T12:34:54;12.82;;;11.45;;
13267;SDS011;6702;47.068;15.458;2022-08-25T12:38:25;11.07;;;9.93;;
13267;SDS011;6702;47.068;15.458;2022-08-25T12:41:32;14.65;;;11.25;;
13267;SDS011;6702;47.068;15.458;2022-08-25T12:44:36;10.75;;;9.40;;
13267;SDS011;6702;47.068;15.458;2022-08-25T12:47:42;13.00;;;10.88;;
13267;SDS011;6702;47.068;15.458;2022-08-25T12:50:47;12.93;;;10.88;;
13267;SDS011;6702;47.068;15.458;2022-08-25T12:54:10;12.93;;;10.48;;
13267;SDS011;6702;47.068;15.458;2022-08-25T12:57:32;14.85;;;10.85;;
13267;SDS011;6702;47.068;15.458;2022-08-25T13:00:48;11.57;;;10.45;;
13267;SDS011;6702;47.068;15.458;2022-08-25T13:08:00;10.82;;;9.32;;
13267;SDS011;6702;47.068;15.458;2022-08-25T13:11:36;11.30;;;10.20;;
13267;SDS011;6702;47.068;15.458;2022-08-25T13:14:51;12.95;;;10.50;;
13267;SDS011;6702;47.068;15.458;2022-08-25T13:17:56;13.27;;;10.30;;
13267;SDS011;6702;47.068;15.458;2022-08-25T13:21:17;9.73;;;8.73;;
13267;SDS011;6702;47.068;15.458;2022-08-25T13:24:25;12.20;;;8.50;;
13267;SDS011;6702;47.068;15.458;2022-08-25T13:27:32;10.70;;;9.73;;
13267;SDS011;6702;47.068;15.458;2022-08-25T13:30:37;10.38;;;8.45;;
13267;SDS011;6702;47.068;15.458;2022-08-25T13:33:48;13.45;;;9.25;;
13267;SDS011;6702;47.068;15.458;2022-08-25T13:36:55;11.55;;;9.35;;
13267;SDS011;6702;47.068;15.458;2022-08-25T13:40:20;9.57;;;8.07;;
13267;SDS011;6702;47.068;15.458;2022-08-25T13:43:28;10.02;;;7.95;;
13267;SDS011;6702;47.068;15.458;2022-08-25T13:46:31;8.95;;;8.05;;
13267;SDS011;6702;47.068;15.458;2022-08-25T13:49:36;8.32;;;7.40;;
13267;SDS011;6702;47.068;15.458;2022-08-25T13:52:40;11.60;;;9.13;;
13267;SDS011;6702;47.068;15.458;2022-08-25T13:55:47;12.77;;;8.88;;
13267;SDS011;6702;47.068;15.458;2022-08-25T13:58:55;12.90;;;10.98;;
13267;SDS011;6702;47.068;15.458;2022-08-25T14:02:00;11.02;;;9.93;;
13267;SDS011;6702;47.068;15.458;2022-08-25T14:05:05;15.85;;;10.48;;
13267;SDS011;6702;47.068;15.458;2022-08-25T14:08:25;14.50;;;10.05;;
13267;SDS011;6702;47.068;15.458;2022-08-25T14:11:39;11.50;;;10.13;;
13267;SDS011;6702;47.068;15.458;2022-08-25T14:14:45;16.65;;;10.52;;
13267;SDS011;6702;47.068;15.458;2022-08-25T14:18:00;13.98;;;9.43;;
13267;SDS011;6702;47.068;15.458;2022-08-25T14:21:08;10.07;;;9.18;;
13267;SDS011;6702;47.068;15.458;2022-08-25T14:24:13;9.02;;;8.07;;
13267;SDS011;6702;47.068;15.458;2022-08-25T14:27:22;12.68;;;9.48;;
13267;SDS011;6702;47.068;15.458;2022-08-25T14:30:27;9.85;;;8.55;;
13267;SDS011;6702;47.068;15.458;2022-08-25T14:33:32;10.57;;;9.02;;
13267;SDS011;6702;47.068;15.458;2022-08-25T14:36:37;12.55;;;9.80;;
13267;SDS011;6702;47.068;15.458;2022-08-25T14:39:41;11.23;;;9.00;;
13267;SDS011;6702;47.068;15.458;2022-08-25T14:42:45;11.93;;;9.90;;
13267;SDS011;6702;47.068;15.458;2022-08-25T14:45:50;14.13;;;11.60;;
13267;SDS011;6702;47.068;15.458;2022-08-25T14:48:54;14.63;;;9.50;;
13267;SDS011;6702;47.068;15.458;2022-08-25T14:52:00;11.80;;;8.80;;
13267;SDS011;6702;47.068;15.458;2022-08-25T14:55:09;14.57;;;10.37;;
13267;SDS011;6702;47.068;15.458;2022-08-25T14:58:31;11.00;;;10.00;;
13267;SDS011;6702;47.068;15.458;2022-08-25T15:01:35;12.10;;;9.83;;
13267;SDS011;6702;47.068;15.458;2022-08-25T15:04:39;11.07;;;9.60;;
13267;SDS011;6702;47.068;15.458;2022-08-25T15:07:49;9.13;;;8.23;;
13267;SDS011;6702;47.068;15.458;2022-08-25T15:11:12;12.60;;;10.32;;
13267;SDS011;6702;47.068;15.458;2022-08-25T15:14:18;16.60;;;9.80;;
13267;SDS011;6702;47.068;15.458;2022-08-25T15:17:34;12.00;;;8.57;;
13267;SDS011;6702;47.068;15.458;2022-08-25T15:20:38;10.23;;;7.77;;
13267;SDS011;6702;47.068;15.458;2022-08-25T15:23:41;9.90;;;8.90;;
13267;SDS011;6702;47.068;15.458;2022-08-25T15:26:46;12.07;;;8.40;;
13267;SDS011;6702;47.068;15.458;2022-08-25T15:29:56;9.00;;;8.17;;
13267;SDS011;6702;47.068;15.458;2022-08-25T15:33:01;10.20;;;9.23;;
13267;SDS011;6702;47.068;15.458;2022-08-25T15:36:05;10.70;;;8.70;;
13267;SDS011;6702;47.068;15.458;2022-08-25T15:39:15;10.13;;;9.10;;
13267;SDS011;6702;47.068;15.458;2022-08-25T15:42:19;9.97;;;9.07;;
13267;SDS011;6702;47.068;15.458;2022-08-25T15:45:26;10.40;;;8.47;;
13267;SDS011;6702;47.068;15.458;2022-08-25T15:48:32;9.63;;;8.67;;
13267;SDS011;6702;47.068;15.458;2022-08-25T15:51:36;11.30;;;9.43;;
13267;SDS011;6702;47.068;15.458;2022-08-25T15:54:39;9.83;;;8.63;;
13267;SDS011;6702;47.068;15.458;2022-08-25T15:57:45;11.97;;;9.97;;
13267;SDS011;6702;47.068;15.458;2022-08-25T16:00:50;10.90;;;9.90;;
13267;SDS011;6702;47.068;15.458;2022-08-25T16:03:58;10.47;;;9.37;;
13267;SDS011;6702;47.068;15.458;2022-08-25T16:07:03;11.23;;;8.73;;
13267;SDS011;6702;47.068;15.458;2022-08-25T16:10:09;10.87;;;9.77;;
13267;SDS011;6702;47.068;15.458;2022-08-25T16:13:13;10.93;;;9.87;;
13267;SDS011;6702;47.068;15.458;2022-08-25T16:16:19;11.57;;;10.00;;
13267;SDS011;6702;47.068;15.458;2022-08-25T16:19:25;18.30;;;10.37;;
13267;SDS011;6702;47.068;15.458;2022-08-25T16:22:28;11.37;;;10.27;;
13267;SDS011;6702;47.068;15.458;2022-08-25T16:25:31;10.70;;;9.60;;
13267;SDS011;6702;47.068;15.458;2022-08-25T16:28:36;12.97;;;10.50;;
13267;SDS011;6702;47.068;15.458;2022-08-25T16:31:44;12.70;;;11.00;;
13267;SDS011;6702;47.068;15.458;2022-08-25T16:34:57;15.30;;;10.40;;
13267;SDS011;6702;47.068;15.458;2022-08-25T16:38:00;11.40;;;10.30;;
13267;SDS011;6702;47.068;15.458;2022-08-25T16:41:05;12.10;;;9.77;;
13267;SDS011;6702;47.068;15.458;2022-08-25T16:44:09;12.60;;;10.73;;
13267;SDS011;6702;47.068;15.458;2022-08-25T16:47:12;13.93;;;11.00;;
13267;SDS011;6702;47.068;15.458;2022-08-25T16:50:21;11.40;;;10.10;;
13267;SDS011;6702;47.068;15.458;2022-08-25T16:53:25;12.17;;;11.07;;
13267;SDS011;6702;47.068;15.458;2022-08-25T16:56:49;10.73;;;9.63;;
13267;SDS011;6702;47.068;15.458;2022-08-25T16:59:55;11.47;;;10.30;;
13267;SDS011;6702;47.068;15.458;2022-08-25T17:02:59;12.30;;;10.30;;
13267;SDS011;6702;47.068;15.458;2022-08-25T17:06:06;12.07;;;10.87;;
13267;SDS011;6702;47.068;15.458;2022-08-25T17:09:10;11.30;;;9.90;;
13267;SDS011;6702;47.068;15.458;2022-08-25T17:12:23;14.67;;;11.30;;
13267;SDS011;6702;47.068;15.458;2022-08-25T17:15:26;11.30;;;10.17;;
13267;SDS011;6702;47.068;15.458;2022-08-25T17:18:30;12.30;;;10.00;;
13267;SDS011;6702;47.068;15.458;2022-08-25T17:21:35;11.10;;;10.10;;
13267;SDS011;6702;47.068;15.458;2022-08-25T17:24:45;10.30;;;9.30;;
13267;SDS011;6702;47.068;15.458;2022-08-25T17:28:01;11.40;;;10.20;;
13267;SDS011;6702;47.068;15.458;2022-08-25T17:31:06;10.90;;;9.80;;
13267;SDS011;6702;47.068;15.458;2022-08-25T17:34:11;11.63;;;9.93;;
13267;SDS011;6702;47.068;15.458;2022-08-25T17:37:18;11.63;;;10.37;;
13267;SDS011;6702;47.068;15.458;2022-08-25T17:40:21;11.37;;;10.23;;
13267;SDS011;6702;47.068;15.458;2022-08-25T17:43:27;12.37;;;11.17;;
13267;SDS011;6702;47.068;15.458;2022-08-25T17:46:31;11.80;;;10.60;;
13267;SDS011;6702;47.068;15.458;2022-08-25T17:49:34;12.00;;;10.27;;
13267;SDS011;6702;47.068;15.458;2022-08-25T17:52:39;11.47;;;10.33;;
13267;SDS011;6702;47.068;15.458;2022-08-25T17:55:43;11.63;;;10.50;;
13267;SDS011;6702;47.068;15.458;2022-08-25T17:58:47;10.60;;;9.37;;
13267;SDS011;6702;47.068;15.458;2022-08-25T18:01:51;13.20;;;11.90;;
13267;SDS011;6702;47.068;15.458;2022-08-25T18:04:55;12.93;;;11.33;;
13267;SDS011;6702;47.068;15.458;2022-08-25T18:08:00;12.80;;;10.67;;
13267;SDS011;6702;47.068;15.458;2022-08-25T18:11:10;13.73;;;10.80;;
13267;SDS011;6702;47.068;15.458;2022-08-25T18:14:14;13.00;;;10.73;;
13267;SDS011;6702;47.068;15.458;2022-08-25T18:17:22;16.23;;;11.37;;
13267;SDS011;6702;47.068;15.458;2022-08-25T18:20:26;13.57;;;12.10;;
13267;SDS011;6702;47.068;15.458;2022-08-25T18:23:31;15.67;;;12.73;;
13267;SDS011;6702;47.068;15.458;2022-08-25T18:26:34;11.23;;;10.03;;
13267;SDS011;6702;47.068;15.458;2022-08-25T18:29:37;13.43;;;12.10;;
13267;SDS011;6702;47.068;15.458;2022-08-25T18:32:41;14.43;;;12.63;;
13267;SDS011;6702;47.068;15.458;2022-08-25T18:35:44;12.67;;;11.47;;
13267;SDS011;6702;47.068;15.458;2022-08-25T18:38:50;15.07;;;11.77;;
13267;SDS011;6702;47.068;15.458;2022-08-25T18:42:13;13.80;;;11.67;;
13267;SDS011;6702;47.068;15.458;2022-08-25T18:45:16;13.57;;;11.90;;
13267;SDS011;6702;47.068;15.458;2022-08-25T18:48:21;17.40;;;12.50;;